sensor_id;sensor_type;location;lat;lon;timestamp;P1;durP1;ratioP1;P2;durP2;ratioP2
22138;SDS011;25815;52.582;13.408;2022-07-29T00:01:45;6.57;;;2.22;;
22138;SDS011;25815;52.582;13.408;2022-07-29T00:04:11;5.05;;;2.38;;
22138;SDS011;25815;52.582;13.408;2022-07-29T00:06:37;5.93;;;2.30;;
22138;SDS011;25815;52.582;13.408;2022-07-29T00:09:03;4.80;;;2.67;;
22138;SDS011;25815;52.582;13.408;2022-07-29T00:11:29;7.93;;;2.63;;
22138;SDS011;25815;52.582;13.408;2022-07-29T00:13:55;6.43;;;2.50;;
22138;SDS011;25815;52.582;13.408;2022-07-29T00:16:21;6.10;;;2.75;;
22138;SDS011;25815;52.582;13.408;2022-07-29T00:18:47;6.75;;;2.55;;
22138;SDS011;25815;52.582;13.408;2022-07-29T00:21:13;8.02;;;3.03;;
22138;SDS011;25815;52.582;13.408;2022-07-29T00:23:39;5.20;;;2.80;;
22138;SDS011;25815;52.582;13.408;2022-07-29T00:26:05;6.18;;;2.80;;
22138;SDS011;25815;52.582;13.408;2022-07-29T00:28:31;8.05;;;2.70;;
22138;SDS011;25815;52.582;13.408;2022-07-29T00:30:57;5.50;;;2.63;;
22138;SDS011;25815;52.582;13.408;2022-07-29T00:33:23;7.35;;;2.40;;
22138;SDS011;25815;52.582;13.408;2022-07-29T00:35:49;7.25;;;2.97;;
22138;SDS011;25815;52.582;13.408;2022-07-29T00:38:16;4.05;;;2.75;;
22138;SDS011;25815;52.582;13.408;2022-07-29T00:40:42;6.57;;;2.80;;
22138;SDS011;25815;52.582;13.408;2022-07-29T00:43:08;5.47;;;2.80;;
22138;SDS011;25815;52.582;13.408;2022-07-29T00:45:34;6.88;;;2.92;;
22138;SDS011;25815;52.582;13.408;2022-07-29T00:48:01;7.00;;;3.08;;
22138;SDS011;25815;52.582;13.408;2022-07-29T00:50:28;3.78;;;2.47;;
22138;SDS011;25815;52.582;13.408;2022-07-29T00:52:54;6.13;;;2.80;;
22138;SDS011;25815;52.582;13.408;2022-07-29T00:55:20;4.50;;;2.50;;
22138;SDS011;25815;52.582;13.408;2022-07-29T00:57:46;4.00;;;2.75;;
22138;SDS011;25815;52.582;13.408;2022-07-29T01:00:13;12.52;;;3.20;;
22138;SDS011;25815;52.582;13.408;2022-07-29T01:02:40;7.78;;;2.60;;
22138;SDS011;25815;52.582;13.408;2022-07-29T01:05:06;5.72;;;2.90;;
22138;SDS011;25815;52.582;13.408;2022-07-29T01:07:33;6.35;;;2.83;;
22138;SDS011;25815;52.582;13.408;2022-07-29T01:10:00;10.60;;;2.83;;
22138;SDS011;25815;52.582;13.408;2022-07-29T01:12:27;6.43;;;2.75;;
22138;SDS011;25815;52.582;13.408;2022-07-29T01:14:54;6.30;;;2.67;;
22138;SDS011;25815;52.582;13.408;2022-07-29T01:17:26;5.53;;;2.65;;
22138;SDS011;25815;52.582;13.408;2022-07-29T01:22:24;7.90;;;2.90;;
22138;SDS011;25815;52.582;13.408;2022-07-29T01:24:56;5.35;;;2.58;;
22138;SDS011;25815;52.582;13.408;2022-07-29T01:29:57;4.45;;;2.63;;
22138;SDS011;25815;52.582;13.408;2022-07-29T01:32:28;6.80;;;2.63;;
22138;SDS011;25815;52.582;13.408;2022-07-29T01:34:58;6.97;;;2.95;;
22138;SDS011;25815;52.582;13.408;2022-07-29T01:39:52;4.55;;;2.50;;
22138;SDS011;25815;52.582;13.408;2022-07-29T01:42:30;5.80;;;2.75;;
22138;SDS011;25815;52.582;13.408;2022-07-29T01:45:02;5.50;;;2.97;;
22138;SDS011;25815;52.582;13.408;2022-07-29T01:47:33;5.72;;;2.70;;
22138;SDS011;25815;52.582;13.408;2022-07-29T01:50:00;5.13;;;2.60;;
22138;SDS011;25815;52.582;13.408;2022-07-29T01:52:43;6.18;;;3.03;;
22138;SDS011;25815;52.582;13.408;2022-07-29T01:55:12;5.15;;;2.53;;
22138;SDS011;25815;52.582;13.408;2022-07-29T01:57:39;5.67;;;2.90;;
22138;SDS011;25815;52.582;13.408;2022-07-29T02:00:06;6.32;;;2.70;;
22138;SDS011;25815;52.582;13.408;2022-07-29T02:02:32;6.82;;;2.45;;
22138;SDS011;25815;52.582;13.408;2022-07-29T02:04:59;5.75;;;2.60;;
22138;SDS011;25815;52.582;13.408;2022-07-29T02:07:27;4.28;;;2.50;;
22138;SDS011;25815;52.582;13.408;2022-07-29T02:09:54;8.02;;;2.50;;
22138;SDS011;25815;52.582;13.408;2022-07-29T02:12:21;4.85;;;2.70;;
22138;SDS011;25815;52.582;13.408;2022-07-29T02:14:48;6.57;;;2.55;;
22138;SDS011;25815;52.582;13.408;2022-07-29T02:17:16;5.07;;;2.55;;
22138;SDS011;25815;52.582;13.408;2022-07-29T02:19:45;5.20;;;2.50;;
22138;SDS011;25815;52.582;13.408;2022-07-29T02:22:11;4.45;;;2.30;;
22138;SDS011;25815;52.582;13.408;2022-07-29T02:24:37;3.42;;;2.17;;
22138;SDS011;25815;52.582;13.408;2022-07-29T02:27:06;8.95;;;2.83;;
22138;SDS011;25815;52.582;13.408;2022-07-29T02:29:33;6.75;;;2.83;;
22138;SDS011;25815;52.582;13.408;2022-07-29T02:32:01;8.73;;;2.25;;
22138;SDS011;25815;52.582;13.408;2022-07-29T02:34:28;7.35;;;2.22;;
22138;SDS011;25815;52.582;13.408;2022-07-29T02:36:54;5.22;;;2.45;;
22138;SDS011;25815;52.582;13.408;2022-07-29T02:39:21;4.30;;;2.20;;
22138;SDS011;25815;52.582;13.408;2022-07-29T02:41:48;6.38;;;2.20;;
22138;SDS011;25815;52.582;13.408;2022-07-29T02:44:17;6.38;;;2.38;;
22138;SDS011;25815;52.582;13.408;2022-07-29T02:46:53;4.65;;;2.13;;
22138;SDS011;25815;52.582;13.408;2022-07-29T02:51:53;5.68;;;2.30;;
22138;SDS011;25815;52.582;13.408;2022-07-29T02:57:06;6.35;;;2.20;;
22138;SDS011;25815;52.582;13.408;2022-07-29T02:59:34;5.10;;;2.25;;
22138;SDS011;25815;52.582;13.408;2022-07-29T03:02:02;4.28;;;2.40;;
22138;SDS011;25815;52.582;13.408;2022-07-29T03:04:28;3.17;;;1.95;;
22138;SDS011;25815;52.582;13.408;2022-07-29T03:06:57;5.18;;;2.47;;
22138;SDS011;25815;52.582;13.408;2022-07-29T03:09:24;5.78;;;2.40;;
22138;SDS011;25815;52.582;13.408;2022-07-29T03:11:50;5.32;;;2.45;;
22138;SDS011;25815;52.582;13.408;2022-07-29T03:14:19;6.97;;;2.47;;
22138;SDS011;25815;52.582;13.408;2022-07-29T03:16:45;6.35;;;2.17;;
22138;SDS011;25815;52.582;13.408;2022-07-29T03:19:12;5.80;;;2.00;;
22138;SDS011;25815;52.582;13.408;2022-07-29T03:21:38;6.03;;;2.20;;
22138;SDS011;25815;52.582;13.408;2022-07-29T03:24:04;10.75;;;2.80;;
22138;SDS011;25815;52.582;13.408;2022-07-29T03:26:30;5.53;;;2.10;;
22138;SDS011;25815;52.582;13.408;2022-07-29T03:28:56;5.70;;;2.35;;
22138;SDS011;25815;52.582;13.408;2022-07-29T03:31:22;4.85;;;2.15;;
22138;SDS011;25815;52.582;13.408;2022-07-29T03:33:48;4.70;;;2.67;;
22138;SDS011;25815;52.582;13.408;2022-07-29T03:36:14;5.68;;;2.30;;
22138;SDS011;25815;52.582;13.408;2022-07-29T03:38:40;4.85;;;1.90;;
22138;SDS011;25815;52.582;13.408;2022-07-29T03:41:09;5.25;;;2.67;;
22138;SDS011;25815;52.582;13.408;2022-07-29T03:43:37;5.95;;;2.30;;
22138;SDS011;25815;52.582;13.408;2022-07-29T03:46:04;5.75;;;2.25;;
22138;SDS011;25815;52.582;13.408;2022-07-29T03:48:32;6.57;;;2.60;;
22138;SDS011;25815;52.582;13.408;2022-07-29T03:50:58;4.53;;;2.28;;
22138;SDS011;25815;52.582;13.408;2022-07-29T03:53:24;6.82;;;2.45;;
22138;SDS011;25815;52.582;13.408;2022-07-29T03:55:52;5.72;;;2.10;;
22138;SDS011;25815;52.582;13.408;2022-07-29T03:58:19;4.38;;;2.25;;
22138;SDS011;25815;52.582;13.408;2022-07-29T04:00:45;6.07;;;2.17;;
22138;SDS011;25815;52.582;13.408;2022-07-29T04:03:11;6.80;;;1.98;;
22138;SDS011;25815;52.582;13.408;2022-07-29T04:05:38;4.57;;;2.25;;
22138;SDS011;25815;52.582;13.408;2022-07-29T04:08:04;6.72;;;2.13;;
22138;SDS011;25815;52.582;13.408;2022-07-29T04:10:30;4.88;;;1.88;;
22138;SDS011;25815;52.582;13.408;2022-07-29T04:12:56;4.53;;;2.25;;
22138;SDS011;25815;52.582;13.408;2022-07-29T04:15:22;3.70;;;1.92;;
22138;SDS011;25815;52.582;13.408;2022-07-29T04:17:48;3.55;;;2.03;;
22138;SDS011;25815;52.582;13.408;2022-07-29T04:20:14;5.75;;;2.15;;
22138;SDS011;25815;52.582;13.408;2022-07-29T04:22:40;6.20;;;2.00;;
22138;SDS011;25815;52.582;13.408;2022-07-29T04:25:06;7.60;;;2.40;;
22138;SDS011;25815;52.582;13.408;2022-07-29T04:27:32;5.95;;;2.08;;
22138;SDS011;25815;52.582;13.408;2022-07-29T04:29:58;8.32;;;2.65;;
22138;SDS011;25815;52.582;13.408;2022-07-29T04:32:25;6.72;;;2.63;;
22138;SDS011;25815;52.582;13.408;2022-07-29T04:34:51;7.72;;;2.53;;
22138;SDS011;25815;52.582;13.408;2022-07-29T04:37:17;6.60;;;2.55;;
22138;SDS011;25815;52.582;13.408;2022-07-29T04:39:43;8.40;;;2.45;;
22138;SDS011;25815;52.582;13.408;2022-07-29T04:42:09;8.00;;;2.80;;
22138;SDS011;25815;52.582;13.408;2022-07-29T04:44:35;5.22;;;2.10;;
22138;SDS011;25815;52.582;13.408;2022-07-29T04:47:01;6.93;;;2.25;;
22138;SDS011;25815;52.582;13.408;2022-07-29T04:49:27;7.28;;;2.30;;
22138;SDS011;25815;52.582;13.408;2022-07-29T04:51:53;7.75;;;2.38;;
22138;SDS011;25815;52.582;13.408;2022-07-29T04:54:19;7.22;;;2.33;;
22138;SDS011;25815;52.582;13.408;2022-07-29T04:56:44;4.43;;;2.40;;
22138;SDS011;25815;52.582;13.408;2022-07-29T04:59:11;6.22;;;2.33;;
22138;SDS011;25815;52.582;13.408;2022-07-29T05:01:37;6.68;;;2.28;;
22138;SDS011;25815;52.582;13.408;2022-07-29T05:04:03;6.93;;;2.38;;
22138;SDS011;25815;52.582;13.408;2022-07-29T05:06:29;7.22;;;2.53;;
22138;SDS011;25815;52.582;13.408;2022-07-29T05:08:55;7.38;;;2.42;;
22138;SDS011;25815;52.582;13.408;2022-07-29T05:11:20;5.93;;;2.20;;
22138;SDS011;25815;52.582;13.408;2022-07-29T05:13:46;5.30;;;1.98;;
22138;SDS011;25815;52.582;13.408;2022-07-29T05:16:13;4.75;;;2.10;;
22138;SDS011;25815;52.582;13.408;2022-07-29T05:18:39;5.68;;;2.35;;
22138;SDS011;25815;52.582;13.408;2022-07-29T05:21:05;5.63;;;2.13;;
22138;SDS011;25815;52.582;13.408;2022-07-29T05:23:31;7.15;;;2.50;;
22138;SDS011;25815;52.582;13.408;2022-07-29T05:25:57;5.05;;;2.13;;
22138;SDS011;25815;52.582;13.408;2022-07-29T05:28:23;5.57;;;2.03;;
22138;SDS011;25815;52.582;13.408;2022-07-29T05:30:48;7.00;;;2.17;;
22138;SDS011;25815;52.582;13.408;2022-07-29T05:33:14;6.03;;;2.05;;
22138;SDS011;25815;52.582;13.408;2022-07-29T05:35:40;5.85;;;2.17;;
22138;SDS011;25815;52.582;13.408;2022-07-29T05:38:06;5.70;;;1.90;;
22138;SDS011;25815;52.582;13.408;2022-07-29T05:40:32;4.88;;;2.30;;
22138;SDS011;25815;52.582;13.408;2022-07-29T05:42:59;6.00;;;2.35;;
22138;SDS011;25815;52.582;13.408;2022-07-29T05:45:24;6.47;;;2.08;;
22138;SDS011;25815;52.582;13.408;2022-07-29T05:47:50;6.85;;;2.33;;
22138;SDS011;25815;52.582;13.408;2022-07-29T05:50:16;5.18;;;2.25;;
22138;SDS011;25815;52.582;13.408;2022-07-29T05:52:42;5.38;;;2.38;;
22138;SDS011;25815;52.582;13.408;2022-07-29T05:55:08;4.82;;;2.20;;
22138;SDS011;25815;52.582;13.408;2022-07-29T05:57:34;5.50;;;2.60;;
22138;SDS011;25815;52.582;13.408;2022-07-29T06:00:00;5.68;;;2.05;;
22138;SDS011;25815;52.582;13.408;2022-07-29T06:02:26;6.45;;;2.10;;
22138;SDS011;25815;52.582;13.408;2022-07-29T06:04:52;5.80;;;2.17;;
22138;SDS011;25815;52.582;13.408;2022-07-29T06:07:18;5.47;;;2.10;;
22138;SDS011;25815;52.582;13.408;2022-07-29T06:09:44;5.03;;;2.30;;
22138;SDS011;25815;52.582;13.408;2022-07-29T06:12:10;6.45;;;2.15;;
22138;SDS011;25815;52.582;13.408;2022-07-29T06:14:36;4.50;;;2.22;;
22138;SDS011;25815;52.582;13.408;2022-07-29T06:17:03;4.50;;;2.00;;
22138;SDS011;25815;52.582;13.408;2022-07-29T06:19:29;6.05;;;2.20;;
22138;SDS011;25815;52.582;13.408;2022-07-29T06:21:55;5.13;;;2.17;;
22138;SDS011;25815;52.582;13.408;2022-07-29T06:24:21;6.35;;;2.05;;
22138;SDS011;25815;52.582;13.408;2022-07-29T06:26:47;6.72;;;2.20;;
22138;SDS011;25815;52.582;13.408;2022-07-29T06:29:13;6.20;;;2.03;;
22138;SDS011;25815;52.582;13.408;2022-07-29T06:31:39;4.00;;;2.10;;
22138;SDS011;25815;52.582;13.408;2022-07-29T06:34:05;6.97;;;2.08;;
22138;SDS011;25815;52.582;13.408;2022-07-29T06:36:34;7.13;;;2.50;;
22138;SDS011;25815;52.582;13.408;2022-07-29T06:39:00;8.02;;;2.33;;
22138;SDS011;25815;52.582;13.408;2022-07-29T06:41:26;6.53;;;2.13;;
22138;SDS011;25815;52.582;13.408;2022-07-29T06:43:52;4.60;;;2.28;;
22138;SDS011;25815;52.582;13.408;2022-07-29T06:46:18;7.35;;;2.13;;
22138;SDS011;25815;52.582;13.408;2022-07-29T06:48:46;4.13;;;2.33;;
22138;SDS011;25815;52.582;13.408;2022-07-29T06:53:41;6.82;;;2.22;;
22138;SDS011;25815;52.582;13.408;2022-07-29T06:56:07;6.45;;;2.00;;
22138;SDS011;25815;52.582;13.408;2022-07-29T06:58:34;6.90;;;2.03;;
22138;SDS011;25815;52.582;13.408;2022-07-29T07:01:03;5.28;;;1.80;;
22138;SDS011;25815;52.582;13.408;2022-07-29T07:03:30;10.60;;;1.98;;
22138;SDS011;25815;52.582;13.408;2022-07-29T07:05:56;5.80;;;2.15;;
22138;SDS011;25815;52.582;13.408;2022-07-29T07:08:22;6.10;;;2.00;;
22138;SDS011;25815;52.582;13.408;2022-07-29T07:10:48;6.28;;;2.10;;
22138;SDS011;25815;52.582;13.408;2022-07-29T07:13:14;7.55;;;2.50;;
22138;SDS011;25815;52.582;13.408;2022-07-29T07:15:42;5.82;;;2.00;;
22138;SDS011;25815;52.582;13.408;2022-07-29T07:18:08;12.13;;;2.38;;
22138;SDS011;25815;52.582;13.408;2022-07-29T07:20:34;6.40;;;2.10;;
22138;SDS011;25815;52.582;13.408;2022-07-29T07:23:00;5.10;;;2.25;;
22138;SDS011;25815;52.582;13.408;2022-07-29T07:25:26;4.53;;;2.17;;
22138;SDS011;25815;52.582;13.408;2022-07-29T07:27:52;5.90;;;2.30;;
22138;SDS011;25815;52.582;13.408;2022-07-29T07:30:18;8.77;;;2.40;;
22138;SDS011;25815;52.582;13.408;2022-07-29T07:32:43;5.93;;;1.80;;
22138;SDS011;25815;52.582;13.408;2022-07-29T07:35:10;4.78;;;1.77;;
22138;SDS011;25815;52.582;13.408;2022-07-29T07:37:36;5.78;;;1.65;;
22138;SDS011;25815;52.582;13.408;2022-07-29T07:40:03;7.80;;;2.03;;
22138;SDS011;25815;52.582;13.408;2022-07-29T07:42:29;10.32;;;2.13;;
22138;SDS011;25815;52.582;13.408;2022-07-29T07:44:55;4.00;;;1.58;;
22138;SDS011;25815;52.582;13.408;2022-07-29T07:47:21;5.05;;;1.77;;
22138;SDS011;25815;52.582;13.408;2022-07-29T07:49:51;5.63;;;1.80;;
22138;SDS011;25815;52.582;13.408;2022-07-29T07:52:17;5.65;;;2.00;;
22138;SDS011;25815;52.582;13.408;2022-07-29T07:54:43;2.85;;;1.50;;
22138;SDS011;25815;52.582;13.408;2022-07-29T07:57:10;4.70;;;1.70;;
22138;SDS011;25815;52.582;13.408;2022-07-29T07:59:36;3.38;;;1.67;;
22138;SDS011;25815;52.582;13.408;2022-07-29T08:02:02;6.97;;;1.95;;
22138;SDS011;25815;52.582;13.408;2022-07-29T08:04:28;4.90;;;1.60;;
22138;SDS011;25815;52.582;13.408;2022-07-29T08:06:54;2.50;;;1.27;;
22138;SDS011;25815;52.582;13.408;2022-07-29T08:09:20;3.33;;;1.30;;
22138;SDS011;25815;52.582;13.408;2022-07-29T08:11:46;5.43;;;1.70;;
22138;SDS011;25815;52.582;13.408;2022-07-29T08:14:12;7.60;;;1.92;;
22138;SDS011;25815;52.582;13.408;2022-07-29T08:16:38;4.63;;;1.38;;
22138;SDS011;25815;52.582;13.408;2022-07-29T08:19:05;7.28;;;1.73;;
22138;SDS011;25815;52.582;13.408;2022-07-29T08:21:31;3.05;;;1.23;;
22138;SDS011;25815;52.582;13.408;2022-07-29T08:23:57;4.15;;;1.35;;
22138;SDS011;25815;52.582;13.408;2022-07-29T08:26:42;3.38;;;1.40;;
22138;SDS011;25815;52.582;13.408;2022-07-29T08:29:08;5.28;;;1.40;;
22138;SDS011;25815;52.582;13.408;2022-07-29T08:31:35;5.35;;;1.40;;
22138;SDS011;25815;52.582;13.408;2022-07-29T08:34:01;4.40;;;1.38;;
22138;SDS011;25815;52.582;13.408;2022-07-29T08:36:28;4.28;;;1.55;;
22138;SDS011;25815;52.582;13.408;2022-07-29T08:38:54;9.63;;;1.73;;
22138;SDS011;25815;52.582;13.408;2022-07-29T08:41:20;4.55;;;1.35;;
22138;SDS011;25815;52.582;13.408;2022-07-29T08:43:47;3.67;;;1.50;;
22138;SDS011;25815;52.582;13.408;2022-07-29T08:46:13;9.40;;;1.42;;
22138;SDS011;25815;52.582;13.408;2022-07-29T08:48:39;3.85;;;1.20;;
22138;SDS011;25815;52.582;13.408;2022-07-29T08:51:07;2.13;;;1.25;;
22138;SDS011;25815;52.582;13.408;2022-07-29T08:53:33;3.03;;;1.35;;
22138;SDS011;25815;52.582;13.408;2022-07-29T08:55:59;5.10;;;1.75;;
22138;SDS011;25815;52.582;13.408;2022-07-29T08:58:26;4.15;;;1.40;;
22138;SDS011;25815;52.582;13.408;2022-07-29T09:00:53;2.63;;;1.35;;
22138;SDS011;25815;52.582;13.408;2022-07-29T09:03:19;5.43;;;1.55;;
22138;SDS011;25815;52.582;13.408;2022-07-29T09:05:46;6.60;;;1.50;;
22138;SDS011;25815;52.582;13.408;2022-07-29T09:08:12;6.03;;;1.50;;
22138;SDS011;25815;52.582;13.408;2022-07-29T09:10:39;4.72;;;1.73;;
22138;SDS011;25815;52.582;13.408;2022-07-29T09:13:05;4.80;;;1.50;;
22138;SDS011;25815;52.582;13.408;2022-07-29T09:15:31;4.00;;;1.65;;
22138;SDS011;25815;52.582;13.408;2022-07-29T09:17:57;4.50;;;1.20;;
22138;SDS011;25815;52.582;13.408;2022-07-29T09:20:24;4.53;;;1.27;;
22138;SDS011;25815;52.582;13.408;2022-07-29T09:22:51;2.55;;;1.30;;
22138;SDS011;25815;52.582;13.408;2022-07-29T09:25:37;2.75;;;1.10;;
22138;SDS011;25815;52.582;13.408;2022-07-29T09:28:10;6.50;;;1.45;;
22138;SDS011;25815;52.582;13.408;2022-07-29T09:33:22;3.83;;;1.42;;
22138;SDS011;25815;52.582;13.408;2022-07-29T09:36:04;7.22;;;1.70;;
22138;SDS011;25815;52.582;13.408;2022-07-29T09:38:31;2.60;;;1.45;;
22138;SDS011;25815;52.582;13.408;2022-07-29T09:40:57;4.75;;;1.23;;
22138;SDS011;25815;52.582;13.408;2022-07-29T09:43:24;4.82;;;1.83;;
22138;SDS011;25815;52.582;13.408;2022-07-29T09:45:50;6.07;;;1.40;;
22138;SDS011;25815;52.582;13.408;2022-07-29T09:48:19;3.70;;;1.73;;
22138;SDS011;25815;52.582;13.408;2022-07-29T09:53:12;6.43;;;1.50;;
22138;SDS011;25815;52.582;13.408;2022-07-29T09:55:51;4.65;;;1.65;;
22138;SDS011;25815;52.582;13.408;2022-07-29T09:58:18;4.15;;;1.27;;
22138;SDS011;25815;52.582;13.408;2022-07-29T10:00:44;6.60;;;1.73;;
22138;SDS011;25815;52.582;13.408;2022-07-29T10:03:11;4.28;;;1.75;;
22138;SDS011;25815;52.582;13.408;2022-07-29T10:05:37;4.88;;;1.50;;
22138;SDS011;25815;52.582;13.408;2022-07-29T10:08:04;6.05;;;1.40;;
22138;SDS011;25815;52.582;13.408;2022-07-29T10:10:31;2.70;;;1.20;;
22138;SDS011;25815;52.582;13.408;2022-07-29T10:13:01;5.32;;;1.30;;
22138;SDS011;25815;52.582;13.408;2022-07-29T10:15:28;2.63;;;1.20;;
22138;SDS011;25815;52.582;13.408;2022-07-29T10:17:56;3.13;;;1.20;;
22138;SDS011;25815;52.582;13.408;2022-07-29T10:20:23;5.40;;;1.50;;
22138;SDS011;25815;52.582;13.408;2022-07-29T10:22:50;3.95;;;1.45;;
22138;SDS011;25815;52.582;13.408;2022-07-29T10:25:17;6.38;;;1.50;;
22138;SDS011;25815;52.582;13.408;2022-07-29T10:27:43;3.67;;;1.48;;
22138;SDS011;25815;52.582;13.408;2022-07-29T10:30:10;5.35;;;1.40;;
22138;SDS011;25815;52.582;13.408;2022-07-29T10:38:07;3.72;;;1.20;;
22138;SDS011;25815;52.582;13.408;2022-07-29T10:40:43;4.30;;;1.25;;
22138;SDS011;25815;52.582;13.408;2022-07-29T10:43:31;4.05;;;1.27;;
22138;SDS011;25815;52.582;13.408;2022-07-29T10:46:01;17.08;;;1.80;;
22138;SDS011;25815;52.582;13.408;2022-07-29T10:48:27;2.53;;;1.00;;
22138;SDS011;25815;52.582;13.408;2022-07-29T10:50:57;4.05;;;1.27;;
22138;SDS011;25815;52.582;13.408;2022-07-29T10:53:25;5.82;;;1.02;;
22138;SDS011;25815;52.582;13.408;2022-07-29T10:56:26;2.75;;;1.15;;
22138;SDS011;25815;52.582;13.408;2022-07-29T11:01:37;4.95;;;1.30;;
22138;SDS011;25815;52.582;13.408;2022-07-29T11:04:03;3.70;;;1.23;;
22138;SDS011;25815;52.582;13.408;2022-07-29T11:09:15;2.22;;;1.20;;
22138;SDS011;25815;52.582;13.408;2022-07-29T11:11:42;3.58;;;1.30;;
22138;SDS011;25815;52.582;13.408;2022-07-29T11:14:08;3.40;;;1.55;;
22138;SDS011;25815;52.582;13.408;2022-07-29T11:19:18;6.70;;;1.30;;
22138;SDS011;25815;52.582;13.408;2022-07-29T11:21:45;3.88;;;1.40;;
22138;SDS011;25815;52.582;13.408;2022-07-29T11:24:20;2.97;;;1.50;;
22138;SDS011;25815;52.582;13.408;2022-07-29T11:27:05;5.55;;;1.52;;
22138;SDS011;25815;52.582;13.408;2022-07-29T11:29:31;4.65;;;1.30;;
22138;SDS011;25815;52.582;13.408;2022-07-29T11:32:08;5.13;;;1.25;;
22138;SDS011;25815;52.582;13.408;2022-07-29T11:34:34;6.40;;;1.33;;
22138;SDS011;25815;52.582;13.408;2022-07-29T11:39:44;4.80;;;1.27;;
22138;SDS011;25815;52.582;13.408;2022-07-29T11:45:00;3.67;;;1.20;;
22138;SDS011;25815;52.582;13.408;2022-07-29T11:47:27;3.30;;;1.58;;
22138;SDS011;25815;52.582;13.408;2022-07-29T11:49:54;2.47;;;1.23;;
22138;SDS011;25815;52.582;13.408;2022-07-29T11:52:21;5.78;;;1.42;;
22138;SDS011;25815;52.582;13.408;2022-07-29T11:54:47;3.03;;;1.40;;
22138;SDS011;25815;52.582;13.408;2022-07-29T11:57:17;2.95;;;1.48;;
22138;SDS011;25815;52.582;13.408;2022-07-29T11:59:44;3.63;;;1.50;;
22138;SDS011;25815;52.582;13.408;2022-07-29T12:02:10;5.55;;;1.63;;
22138;SDS011;25815;52.582;13.408;2022-07-29T12:04:47;4.40;;;1.67;;
22138;SDS011;25815;52.582;13.408;2022-07-29T12:07:14;5.07;;;1.47;;
22138;SDS011;25815;52.582;13.408;2022-07-29T12:09:41;1.42;;;1.25;;
22138;SDS011;25815;52.582;13.408;2022-07-29T12:12:15;4.60;;;1.42;;
22138;SDS011;25815;52.582;13.408;2022-07-29T12:14:41;5.57;;;1.70;;
22138;SDS011;25815;52.582;13.408;2022-07-29T12:17:24;2.92;;;1.40;;
22138;SDS011;25815;52.582;13.408;2022-07-29T12:19:50;2.05;;;1.60;;
22138;SDS011;25815;52.582;13.408;2022-07-29T12:22:26;4.72;;;1.67;;
22138;SDS011;25815;52.582;13.408;2022-07-29T12:24:52;3.40;;;1.58;;
22138;SDS011;25815;52.582;13.408;2022-07-29T12:27:18;2.42;;;1.40;;
22138;SDS011;25815;52.582;13.408;2022-07-29T12:29:45;5.63;;;1.80;;
22138;SDS011;25815;52.582;13.408;2022-07-29T12:32:11;5.25;;;1.58;;
22138;SDS011;25815;52.582;13.408;2022-07-29T12:34:37;6.50;;;1.98;;
22138;SDS011;25815;52.582;13.408;2022-07-29T12:37:03;4.20;;;2.00;;
22138;SDS011;25815;52.582;13.408;2022-07-29T12:39:29;4.60;;;1.92;;
22138;SDS011;25815;52.582;13.408;2022-07-29T12:41:56;2.67;;;1.80;;
22138;SDS011;25815;52.582;13.408;2022-07-29T12:44:22;6.15;;;1.90;;
22138;SDS011;25815;52.582;13.408;2022-07-29T12:47:01;5.97;;;1.90;;
22138;SDS011;25815;52.582;13.408;2022-07-29T12:49:27;4.33;;;2.40;;
22138;SDS011;25815;52.582;13.408;2022-07-29T12:51:52;7.22;;;2.13;;
22138;SDS011;25815;52.582;13.408;2022-07-29T12:54:18;3.95;;;2.00;;
22138;SDS011;25815;52.582;13.408;2022-07-29T12:56:44;2.70;;;1.77;;
22138;SDS011;25815;52.582;13.408;2022-07-29T12:59:15;3.80;;;1.90;;
22138;SDS011;25815;52.582;13.408;2022-07-29T13:01:42;5.35;;;1.60;;
22138;SDS011;25815;52.582;13.408;2022-07-29T13:04:08;5.53;;;1.90;;
22138;SDS011;25815;52.582;13.408;2022-07-29T13:06:35;6.22;;;2.40;;
22138;SDS011;25815;52.582;13.408;2022-07-29T13:11:30;2.53;;;1.70;;
22138;SDS011;25815;52.582;13.408;2022-07-29T13:13:56;6.78;;;1.77;;
22138;SDS011;25815;52.582;13.408;2022-07-29T13:16:22;2.75;;;1.90;;
22138;SDS011;25815;52.582;13.408;2022-07-29T13:18:48;7.00;;;2.10;;
22138;SDS011;25815;52.582;13.408;2022-07-29T13:21:15;6.35;;;1.80;;
22138;SDS011;25815;52.582;13.408;2022-07-29T13:23:41;3.53;;;2.03;;
22138;SDS011;25815;52.582;13.408;2022-07-29T13:26:08;5.65;;;2.03;;
22138;SDS011;25815;52.582;13.408;2022-07-29T13:28:34;3.17;;;2.13;;
22138;SDS011;25815;52.582;13.408;2022-07-29T13:31:00;3.55;;;1.80;;
22138;SDS011;25815;52.582;13.408;2022-07-29T13:33:26;8.82;;;2.03;;
22138;SDS011;25815;52.582;13.408;2022-07-29T13:35:52;5.43;;;2.20;;
22138;SDS011;25815;52.582;13.408;2022-07-29T13:38:18;7.00;;;2.28;;
22138;SDS011;25815;52.582;13.408;2022-07-29T13:40:44;5.47;;;1.85;;
22138;SDS011;25815;52.582;13.408;2022-07-29T13:43:10;5.32;;;1.80;;
22138;SDS011;25815;52.582;13.408;2022-07-29T13:45:36;3.30;;;2.00;;
22138;SDS011;25815;52.582;13.408;2022-07-29T13:48:02;5.47;;;2.00;;
22138;SDS011;25815;52.582;13.408;2022-07-29T13:50:28;3.97;;;1.98;;
22138;SDS011;25815;52.582;13.408;2022-07-29T13:52:54;3.50;;;1.70;;
22138;SDS011;25815;52.582;13.408;2022-07-29T13:55:20;4.72;;;1.98;;
22138;SDS011;25815;52.582;13.408;2022-07-29T13:57:46;3.60;;;1.95;;
22138;SDS011;25815;52.582;13.408;2022-07-29T14:00:12;5.90;;;2.25;;
22138;SDS011;25815;52.582;13.408;2022-07-29T14:02:39;5.28;;;2.00;;
22138;SDS011;25815;52.582;13.408;2022-07-29T14:05:05;3.75;;;1.88;;
22138;SDS011;25815;52.582;13.408;2022-07-29T14:07:31;4.00;;;1.90;;
22138;SDS011;25815;52.582;13.408;2022-07-29T14:09:58;5.00;;;2.10;;
22138;SDS011;25815;52.582;13.408;2022-07-29T14:12:24;3.50;;;1.88;;
22138;SDS011;25815;52.582;13.408;2022-07-29T14:14:49;4.43;;;1.92;;
22138;SDS011;25815;52.582;13.408;2022-07-29T14:17:15;4.13;;;1.88;;
22138;SDS011;25815;52.582;13.408;2022-07-29T14:19:41;1.95;;;1.50;;
22138;SDS011;25815;52.582;13.408;2022-07-29T14:22:08;3.22;;;1.80;;
22138;SDS011;25815;52.582;13.408;2022-07-29T14:24:34;3.22;;;2.10;;
22138;SDS011;25815;52.582;13.408;2022-07-29T14:27:00;7.75;;;2.28;;
22138;SDS011;25815;52.582;13.408;2022-07-29T14:29:26;4.38;;;1.95;;
22138;SDS011;25815;52.582;13.408;2022-07-29T14:31:52;5.40;;;1.73;;
22138;SDS011;25815;52.582;13.408;2022-07-29T14:34:18;4.75;;;2.05;;
22138;SDS011;25815;52.582;13.408;2022-07-29T14:36:44;3.35;;;1.90;;
22138;SDS011;25815;52.582;13.408;2022-07-29T14:39:10;4.32;;;1.77;;
22138;SDS011;25815;52.582;13.408;2022-07-29T14:41:36;4.10;;;1.83;;
22138;SDS011;25815;52.582;13.408;2022-07-29T14:44:03;4.20;;;2.10;;
22138;SDS011;25815;52.582;13.408;2022-07-29T14:46:29;4.63;;;2.10;;
22138;SDS011;25815;52.582;13.408;2022-07-29T14:48:55;5.80;;;1.98;;
22138;SDS011;25815;52.582;13.408;2022-07-29T14:51:20;3.80;;;2.00;;
22138;SDS011;25815;52.582;13.408;2022-07-29T14:53:46;6.07;;;2.40;;
22138;SDS011;25815;52.582;13.408;2022-07-29T14:56:12;4.95;;;2.05;;
22138;SDS011;25815;52.582;13.408;2022-07-29T14:58:38;3.50;;;1.92;;
22138;SDS011;25815;52.582;13.408;2022-07-29T15:01:04;4.55;;;2.20;;
22138;SDS011;25815;52.582;13.408;2022-07-29T15:03:31;5.78;;;2.38;;
22138;SDS011;25815;52.582;13.408;2022-07-29T15:05:57;3.30;;;2.25;;
22138;SDS011;25815;52.582;13.408;2022-07-29T15:08:23;6.60;;;2.03;;
22138;SDS011;25815;52.582;13.408;2022-07-29T15:10:50;3.33;;;1.73;;
22138;SDS011;25815;52.582;13.408;2022-07-29T15:13:16;5.32;;;2.30;;
22138;SDS011;25815;52.582;13.408;2022-07-29T15:15:42;5.30;;;2.00;;